sensor_id;sensor_type;location;lat;lon;timestamp;pressure;altitude;pressure_sealevel;temperature;humidity
43312;BME280;30041;48.300;16.352;2023-05-23T00:00:59;99371.97;;;22.31;53.55
43312;BME280;30041;48.300;16.352;2023-05-23T00:03:25;99372.78;;;22.32;53.58
43312;BME280;30041;48.300;16.352;2023-05-23T00:05:51;99364.69;;;22.32;53.65
43312;BME280;30041;48.300;16.352;2023-05-23T00:08:17;99368.47;;;22.31;53.53
43312;BME280;30041;48.300;16.352;2023-05-23T00:10:44;99375.72;;;22.30;53.86
43312;BME280;30041;48.300;16.352;2023-05-23T00:13:10;99375.72;;;22.30;53.61
43312;BME280;30041;48.300;16.352;2023-05-23T00:15:36;99373.88;;;22.31;53.72
43312;BME280;30041;48.300;16.352;2023-05-23T00:18:02;99383.03;;;22.30;53.80
43312;BME280;30041;48.300;16.352;2023-05-23T00:20:28;99376.31;;;22.32;53.75
43312;BME280;30041;48.300;16.352;2023-05-23T00:22:54;99374.13;;;22.29;53.81
43312;BME280;30041;48.300;16.352;2023-05-23T00:25:19;99369.78;;;22.28;53.62
43312;BME280;30041;48.300;16.352;2023-05-23T00:27:45;99364.88;;;22.25;53.87
43312;BME280;30041;48.300;16.352;2023-05-23T00:30:10;99371.66;;;22.28;53.56
43312;BME280;30041;48.300;16.352;2023-05-23T00:32:36;99369.22;;;22.26;53.96
43312;BME280;30041;48.300;16.352;2023-05-23T00:35:01;99374.34;;;22.28;53.82
43312;BME280;30041;48.300;16.352;2023-05-23T00:37:27;99373.78;;;22.26;53.89
43312;BME280;30041;48.300;16.352;2023-05-23T00:39:52;99368.13;;;22.27;53.73
43312;BME280;30041;48.300;16.352;2023-05-23T00:42:18;99368.47;;;22.31;53.72
43312;BME280;30041;48.300;16.352;2023-05-23T00:44:44;99379.19;;;22.26;53.90
43312;BME280;30041;48.300;16.352;2023-05-23T00:47:09;99371.66;;;22.28;53.68
43312;BME280;30041;48.300;16.352;2023-05-23T00:49:35;99377.56;;;22.25;53.74
43312;BME280;30041;48.300;16.352;2023-05-23T00:52:01;99371.06;;;22.26;53.78
43312;BME280;30041;48.300;16.352;2023-05-23T00:54:29;99367.81;;;22.24;53.63
43312;BME280;30041;48.300;16.352;2023-05-23T00:56:55;99372.97;;;22.25;53.68
43312;BME280;30041;48.300;16.352;2023-05-23T00:59:22;99364.06;;;22.25;53.59
43312;BME280;30041;48.300;16.352;2023-05-23T01:01:49;99374.06;;;22.24;53.62
43312;BME280;30041;48.300;16.352;2023-05-23T01:04:16;99371.91;;;22.26;53.79
43312;BME280;30041;48.300;16.352;2023-05-23T01:06:41;99370.03;;;22.27;53.58
43312;BME280;30041;48.300;16.352;2023-05-23T01:09:07;99372.16;;;22.25;53.73
43312;BME280;30041;48.300;16.352;2023-05-23T01:11:44;99365.69;;;22.26;53.89
43312;BME280;30041;48.300;16.352;2023-05-23T01:14:20;99362.97;;;22.26;53.78
43312;BME280;30041;48.300;16.352;2023-05-23T01:17:16;99364.06;;;22.25;53.56
43312;BME280;30041;48.300;16.352;2023-05-23T01:20:10;99353.03;;;22.26;53.65
43312;BME280;30041;48.300;16.352;2023-05-23T01:26:02;99354.88;;;22.26;53.72
43312;BME280;30041;48.300;16.352;2023-05-23T01:28:30;99353.25;;;22.25;53.77
43312;BME280;30041;48.300;16.352;2023-05-23T01:30:57;99351.63;;;22.24;53.75
43312;BME280;30041;48.300;16.352;2023-05-23T01:33:24;99351.06;;;22.22;53.64
43312;BME280;30041;48.300;16.352;2023-05-23T01:35:52;99350.19;;;22.21;53.91
43312;BME280;30041;48.300;16.352;2023-05-23T01:38:20;99352.69;;;22.23;53.68
43312;BME280;30041;48.300;16.352;2023-05-23T01:40:45;99347.28;;;22.23;53.89
43312;BME280;30041;48.300;16.352;2023-05-23T01:43:11;99351.88;;;22.22;53.74
43312;BME280;30041;48.300;16.352;2023-05-23T01:45:37;99346.13;;;22.18;53.78
43312;BME280;30041;48.300;16.352;2023-05-23T01:48:03;99342.03;;;22.16;53.82
43312;BME280;30041;48.300;16.352;2023-05-23T01:50:30;99339.34;;;22.16;53.78
43312;BME280;30041;48.300;16.352;2023-05-23T01:53:00;99335.91;;;22.21;53.96
43312;BME280;30041;48.300;16.352;2023-05-23T01:55:26;99338.59;;;22.21;53.99
43312;BME280;30041;48.300;16.352;2023-05-23T01:57:55;99343.78;;;22.22;53.96
43312;BME280;30041;48.300;16.352;2023-05-23T02:00:22;99344.59;;;22.23;53.91
43312;BME280;30041;48.300;16.352;2023-05-23T02:02:47;99343.19;;;22.20;53.89
43312;BME280;30041;48.300;16.352;2023-05-23T02:05:13;99349.91;;;22.17;53.96
43312;BME280;30041;48.300;16.352;2023-05-23T02:07:39;99351.53;;;22.18;53.69
43312;BME280;30041;48.300;16.352;2023-05-23T02:10:07;99352.34;;;22.19;53.86
43312;BME280;30041;48.300;16.352;2023-05-23T02:12:33;99343.69;;;22.17;53.93
43312;BME280;30041;48.300;16.352;2023-05-23T02:14:59;99344.75;;;22.16;53.65
43312;BME280;30041;48.300;16.352;2023-05-23T02:17:24;99341.81;;;22.17;53.89
43312;BME280;30041;48.300;16.352;2023-05-23T02:19:50;99332.38;;;22.20;53.68
43312;BME280;30041;48.300;16.352;2023-05-23T02:22:16;99330.19;;;22.17;53.76
43312;BME280;30041;48.300;16.352;2023-05-23T02:24:41;99322.91;;;22.17;53.70
43312;BME280;30041;48.300;16.352;2023-05-23T02:27:07;99328.88;;;22.20;53.67
43312;BME280;30041;48.300;16.352;2023-05-23T02:29:32;99335.03;;;22.15;53.89
43312;BME280;30041;48.300;16.352;2023-05-23T02:31:58;99323.38;;;22.14;53.56
43312;BME280;30041;48.300;16.352;2023-05-23T02:34:23;99327.16;;;22.13;53.69
43312;BME280;30041;48.300;16.352;2023-05-23T02:36:49;99329.88;;;22.13;53.89
43312;BME280;30041;48.300;16.352;2023-05-23T02:39:15;99318.84;;;22.15;53.67
43312;BME280;30041;48.300;16.352;2023-05-23T02:41:40;99327.97;;;22.14;53.62
43312;BME280;30041;48.300;16.352;2023-05-23T02:44:06;99328.88;;;22.20;53.67
43312;BME280;30041;48.300;16.352;2023-05-23T02:46:31;99328.31;;;22.17;53.60
43312;BME280;30041;48.300;16.352;2023-05-23T02:48:56;99326.19;;;22.20;53.70
43312;BME280;30041;48.300;16.352;2023-05-23T02:51:22;99323.72;;;22.18;53.78
43312;BME280;30041;48.300;16.352;2023-05-23T02:53:48;99329.69;;;22.20;53.61
43312;BME280;30041;48.300;16.352;2023-05-23T02:56:13;99323.72;;;22.18;53.64
43312;BME280;30041;48.300;16.352;2023-05-23T02:58:38;99318.56;;;22.16;53.67
43312;BME280;30041;48.300;16.352;2023-05-23T03:01:05;99326.41;;;22.18;53.77
43312;BME280;30041;48.300;16.352;2023-05-23T03:03:30;99329.94;;;22.18;53.62
43312;BME280;30041;48.300;16.352;2023-05-23T03:06:00;99323.22;;;22.21;53.38
43312;BME280;30041;48.300;16.352;2023-05-23T03:08:26;99331.56;;;22.20;53.50
43312;BME280;30041;48.300;16.352;2023-05-23T03:10:54;99327.75;;;22.15;53.50
43312;BME280;30041;48.300;16.352;2023-05-23T03:13:20;99328.78;;;22.14;53.75
43312;BME280;30041;48.300;16.352;2023-05-23T03:15:46;99329.88;;;22.13;53.74
43312;BME280;30041;48.300;16.352;2023-05-23T03:18:12;99340.72;;;22.18;53.43
43312;BME280;30041;48.300;16.352;2023-05-23T03:20:37;99336.88;;;22.14;53.69
43312;BME280;30041;48.300;16.352;2023-05-23T03:23:03;99333.72;;;22.17;53.77
43312;BME280;30041;48.300;16.352;2023-05-23T03:25:29;99335.03;;;22.15;53.40
43312;BME280;30041;48.300;16.352;2023-05-23T03:27:54;99335.31;;;22.18;53.57
43312;BME280;30041;48.300;16.352;2023-05-23T03:30:20;99346.94;;;22.19;53.32
43312;BME280;30041;48.300;16.352;2023-05-23T03:32:45;99341.09;;;22.22;53.40
43312;BME280;30041;48.300;16.352;2023-05-23T03:35:11;99350.47;;;22.20;53.67
43312;BME280;30041;48.300;16.352;2023-05-23T03:37:36;99350.72;;;22.18;53.78
43312;BME280;30041;48.300;16.352;2023-05-23T03:40:02;99351.22;;;22.15;53.75
43312;BME280;30041;48.300;16.352;2023-05-23T03:42:28;99352.59;;;22.17;53.75
43312;BME280;30041;48.300;16.352;2023-05-23T03:44:54;99347.78;;;22.20;53.37
43312;BME280;30041;48.300;16.352;2023-05-23T03:47:19;99351.47;;;22.13;53.29
43312;BME280;30041;48.300;16.352;2023-05-23T03:49:45;99341.25;;;22.15;53.55
43312;BME280;30041;48.300;16.352;2023-05-23T03:52:11;99348.53;;;22.15;53.98
43312;BME280;30041;48.300;16.352;2023-05-23T03:54:36;99347.44;;;22.16;54.31
43312;BME280;30041;48.300;16.352;2023-05-23T03:57:02;99348.81;;;22.18;54.30
43312;BME280;30041;48.300;16.352;2023-05-23T03:59:28;99346.94;;;22.19;54.04
43312;BME280;30041;48.300;16.352;2023-05-23T04:01:53;99344.16;;;22.14;53.98
43312;BME280;30041;48.300;16.352;2023-05-23T04:04:19;99349.81;;;22.12;54.06
43312;BME280;30041;48.300;16.352;2023-05-23T04:06:45;99357.09;;;22.12;54.32
43312;BME280;30041;48.300;16.352;2023-05-23T04:09:12;99356.22;;;22.06;53.80
43312;BME280;30041;48.300;16.352;2023-05-23T04:11:37;99354.56;;;22.05;53.69
43312;BME280;30041;48.300;16.352;2023-05-23T04:14:03;99357.22;;;22.00;53.35
43312;BME280;30041;48.300;16.352;2023-05-23T04:16:28;99356.63;;;21.98;52.97
43312;BME280;30041;48.300;16.352;2023-05-23T04:18:54;99350.09;;;21.94;53.13
43312;BME280;30041;48.300;16.352;2023-05-23T04:21:19;99354.44;;;21.95;53.27
43312;BME280;30041;48.300;16.352;2023-05-23T04:23:45;99358.75;;;21.96;53.37
43312;BME280;30041;48.300;16.352;2023-05-23T04:26:10;99357.22;;;22.00;52.86
43312;BME280;30041;48.300;16.352;2023-05-23T04:28:36;99351.47;;;21.96;53.25
43312;BME280;30041;48.300;16.352;2023-05-23T04:31:01;99353.13;;;21.97;53.42
43312;BME280;30041;48.300;16.352;2023-05-23T04:33:28;99345.34;;;22.01;53.21
43312;BME280;30041;48.300;16.352;2023-05-23T04:35:54;99346.59;;;21.93;53.15
43312;BME280;30041;48.300;16.352;2023-05-23T04:38:19;99349.53;;;21.92;53.35
43312;BME280;30041;48.300;16.352;2023-05-23T04:40:45;99356.31;;;21.94;53.10
43312;BME280;30041;48.300;16.352;2023-05-23T04:43:10;99348.72;;;21.91;53.31
43312;BME280;30041;48.300;16.352;2023-05-23T04:45:36;99357.63;;;21.92;53.11
43312;BME280;30041;48.300;16.352;2023-05-23T04:48:02;99351.06;;;21.88;52.97
43312;BME280;30041;48.300;16.352;2023-05-23T04:50:27;99348.94;;;21.90;53.04
43312;BME280;30041;48.300;16.352;2023-05-23T04:52:53;99347.63;;;21.92;52.81
43312;BME280;30041;48.300;16.352;2023-05-23T04:55:18;99345.78;;;21.93;52.81
43312;BME280;30041;48.300;16.352;2023-05-23T04:57:44;99344.88;;;21.87;52.76
43312;BME280;30041;48.300;16.352;2023-05-23T05:00:10;99347.50;;;21.82;52.74
43312;BME280;30041;48.300;16.352;2023-05-23T05:02:36;99344.56;;;21.84;52.73
43312;BME280;30041;48.300;16.352;2023-05-23T05:05:02;99345.63;;;21.83;52.72
43312;BME280;30041;48.300;16.352;2023-05-23T05:07:27;99348.66;;;21.86;52.64
43312;BME280;30041;48.300;16.352;2023-05-23T05:09:53;99340.56;;;21.86;52.66
43312;BME280;30041;48.300;16.352;2023-05-23T05:12:18;99353.78;;;21.88;52.75
43312;BME280;30041;48.300;16.352;2023-05-23T05:14:44;99349.47;;;21.87;52.73
43312;BME280;30041;48.300;16.352;2023-05-23T05:17:09;99349.78;;;21.90;53.02
43312;BME280;30041;48.300;16.352;2023-05-23T05:19:35;99349.84;;;21.95;54.12
43312;BME280;30041;48.300;16.352;2023-05-23T05:22:00;99354.91;;;21.92;55.82
43312;BME280;30041;48.300;16.352;2023-05-23T05:24:26;99361.81;;;21.83;55.70
43312;BME280;30041;48.300;16.352;2023-05-23T05:26:52;99361.97;;;21.76;54.96
43312;BME280;30041;48.300;16.352;2023-05-23T05:29:18;99366.78;;;21.74;54.51
43312;BME280;30041;48.300;16.352;2023-05-23T05:31:43;99360.59;;;21.73;54.37
43312;BME280;30041;48.300;16.352;2023-05-23T05:34:09;99364.03;;;21.69;54.48
43312;BME280;30041;48.300;16.352;2023-05-23T05:36:36;99362.06;;;21.64;54.45
43312;BME280;30041;48.300;16.352;2023-05-23T05:39:02;99367.59;;;21.74;54.07
43312;BME280;30041;48.300;16.352;2023-05-23T05:41:27;99366.88;;;21.79;53.93
43312;BME280;30041;48.300;16.352;2023-05-23T05:43:53;99360.19;;;21.82;53.68
43312;BME280;30041;48.300;16.352;2023-05-23T05:46:18;99356.22;;;21.89;53.31
43312;BME280;30041;48.300;16.352;2023-05-23T05:48:45;99351.19;;;21.93;53.36
43312;BME280;30041;48.300;16.352;2023-05-23T05:51:10;99356.81;;;21.91;53.91
43312;BME280;30041;48.300;16.352;2023-05-23T05:53:36;99359.59;;;21.80;53.52
43312;BME280;30041;48.300;16.352;2023-05-23T05:56:01;99362.88;;;21.65;53.92
43312;BME280;30041;48.300;16.352;2023-05-23T05:58:27;99364.34;;;21.55;53.98
43312;BME280;30041;48.300;16.352;2023-05-23T06:00:53;99352.41;;;21.51;54.21
43312;BME280;30041;48.300;16.352;2023-05-23T06:03:19;99360.25;;;21.53;54.14
43312;BME280;30041;48.300;16.352;2023-05-23T06:05:45;99353.31;;;21.57;54.00
43312;BME280;30041;48.300;16.352;2023-05-23T06:08:10;99359.84;;;21.61;54.16
43312;BME280;30041;48.300;16.352;2023-05-23T06:10:37;99345.66;;;21.66;54.09
43312;BME280;30041;48.300;16.352;2023-05-23T06:13:02;99344.16;;;21.58;54.60
43312;BME280;30041;48.300;16.352;2023-05-23T06:15:28;99361.25;;;21.64;54.34
43312;BME280;30041;48.300;16.352;2023-05-23T06:17:53;99358.06;;;21.67;54.16
43312;BME280;30041;48.300;16.352;2023-05-23T06:20:19;99356.91;;;21.46;55.10
43312;BME280;30041;48.300;16.352;2023-05-23T06:22:44;99351.88;;;21.38;55.10
43312;BME280;30041;48.300;16.352;2023-05-23T06:25:10;99362.00;;;21.30;55.56
43312;BME280;30041;48.300;16.352;2023-05-23T06:27:36;99360.47;;;21.34;55.76
43312;BME280;30041;48.300;16.352;2023-05-23T06:30:05;99363.91;;;21.81;54.33
43312;BME280;30041;48.300;16.352;2023-05-23T06:32:30;99358.75;;;22.13;53.69
43312;BME280;30041;48.300;16.352;2023-05-23T06:34:56;99349.31;;;22.32;53.27
43312;BME280;30041;48.300;16.352;2023-05-23T06:37:21;99355.41;;;22.45;53.32
43312;BME280;30041;48.300;16.352;2023-05-23T06:39:47;99353.47;;;22.40;53.10
43312;BME280;30041;48.300;16.352;2023-05-23T06:42:13;99344.84;;;22.43;53.03
43312;BME280;30041;48.300;16.352;2023-05-23T06:44:39;99350.13;;;22.55;53.04
43312;BME280;30041;48.300;16.352;2023-05-23T06:47:04;99351.06;;;22.66;53.05
43312;BME280;30041;48.300;16.352;2023-05-23T06:49:30;99340.91;;;22.73;52.72
43312;BME280;30041;48.300;16.352;2023-05-23T06:51:55;99341.19;;;22.76;52.68
43312;BME280;30041;48.300;16.352;2023-05-23T06:54:23;99349.34;;;22.82;52.72
43312;BME280;30041;48.300;16.352;2023-05-23T06:56:49;99342.13;;;22.87;52.62
43312;BME280;30041;48.300;16.352;2023-05-23T06:59:14;99349.22;;;22.93;52.72
43312;BME280;30041;48.300;16.352;2023-05-23T07:01:40;99344.69;;;22.99;52.72
43312;BME280;30041;48.300;16.352;2023-05-23T07:04:06;99345.03;;;23.03;52.39
43312;BME280;30041;48.300;16.352;2023-05-23T07:06:31;99339.91;;;23.06;52.79
43312;BME280;30041;48.300;16.352;2023-05-23T07:08:57;99342.94;;;23.10;52.67
43312;BME280;30041;48.300;16.352;2023-05-23T07:11:22;99334.56;;;23.11;52.54
43312;BME280;30041;48.300;16.352;2023-05-23T07:13:48;99333.00;;;23.15;52.43
43312;BME280;30041;48.300;16.352;2023-05-23T07:16:14;99322.47;;;23.19;52.74
43312;BME280;30041;48.300;16.352;2023-05-23T07:18:39;99329.00;;;23.23;52.42
43312;BME280;30041;48.300;16.352;2023-05-23T07:21:05;99326.34;;;23.28;52.85
43312;BME280;30041;48.300;16.352;2023-05-23T07:23:33;99330.72;;;23.34;52.23
43312;BME280;30041;48.300;16.352;2023-05-23T07:26:00;99323.41;;;23.35;52.35
43312;BME280;30041;48.300;16.352;2023-05-23T07:28:25;99321.56;;;23.35;52.49
43312;BME280;30041;48.300;16.352;2023-05-23T07:30:51;99314.03;;;23.42;52.34
43312;BME280;30041;48.300;16.352;2023-05-23T07:33:16;99316.25;;;23.51;52.28
43312;BME280;30041;48.300;16.352;2023-05-23T07:35:42;99315.75;;;23.54;52.14
43312;BME280;30041;48.300;16.352;2023-05-23T07:38:08;99318.72;;;23.57;52.12
43312;BME280;30041;48.300;16.352;2023-05-23T07:40:33;99315.78;;;23.59;52.32
43312;BME280;30041;48.300;16.352;2023-05-23T07:42:59;99310.13;;;23.60;52.45
43312;BME280;30041;48.300;16.352;2023-05-23T07:45:24;99312.00;;;23.60;52.15
43312;BME280;30041;48.300;16.352;2023-05-23T07:47:50;99305.50;;;23.61;52.53
43312;BME280;30041;48.300;16.352;2023-05-23T07:50:16;99308.22;;;23.61;52.30
43312;BME280;30041;48.300;16.352;2023-05-23T07:52:41;99300.66;;;23.63;52.48
43312;BME280;30041;48.300;16.352;2023-05-23T07:55:07;99306.66;;;23.70;52.54
43312;BME280;30041;48.300;16.352;2023-05-23T07:57:33;99303.44;;;23.73;52.40
43312;BME280;30041;48.300;16.352;2023-05-23T07:59:58;99302.97;;;23.81;52.10
43312;BME280;30041;48.300;16.352;2023-05-23T08:02:24;99304.63;;;23.82;52.13
43312;BME280;30041;48.300;16.352;2023-05-23T08:04:49;99307.03;;;23.84;51.82
43312;BME280;30041;48.300;16.352;2023-05-23T08:07:15;99306.53;;;23.87;52.29
43312;BME280;30041;48.300;16.352;2023-05-23T08:09:41;99304.63;;;23.88;52.20
43312;BME280;30041;48.300;16.352;2023-05-23T08:12:07;99301.13;;;23.87;52.25
43312;BME280;30041;48.300;16.352;2023-05-23T08:14:34;99297.56;;;23.87;52.26
43312;BME280;30041;48.300;16.352;2023-05-23T08:16:59;99288.41;;;23.93;51.95
43312;BME280;30041;48.300;16.352;2023-05-23T08:19:25;99290.06;;;23.94;52.10
43312;BME280;30041;48.300;16.352;2023-05-23T08:21:50;99290.34;;;23.97;51.78
43312;BME280;30041;48.300;16.352;2023-05-23T08:24:16;99286.81;;;23.97;51.99
43312;BME280;30041;48.300;16.352;2023-05-23T08:26:41;99283.84;;;23.98;52.13
43312;BME280;30041;48.300;16.352;2023-05-23T08:29:07;99285.75;;;23.98;52.12
43312;BME280;30041;48.300;16.352;2023-05-23T08:31:32;99284.41;;;24.00;51.84
43312;BME280;30041;48.300;16.352;2023-05-23T08:33:58;99280.09;;;24.05;51.76
43312;BME280;30041;48.300;16.352;2023-05-23T08:36:24;99289.84;;;24.06;52.06
43312;BME280;30041;48.300;16.352;2023-05-23T08:38:50;99280.91;;;24.05;52.08
43312;BME280;30041;48.300;16.352;2023-05-23T08:41:18;99285.78;;;24.08;51.67
43312;BME280;30041;48.300;16.352;2023-05-23T08:43:44;99282.03;;;24.09;51.85
43312;BME280;30041;48.300;16.352;2023-05-23T08:46:11;99280.69;;;24.12;51.97
43312;BME280;30041;48.300;16.352;2023-05-23T08:48:38;99279.34;;;24.14;51.81
43312;BME280;30041;48.300;16.352;2023-05-23T08:51:03;99280.13;;;24.15;51.93
43312;BME280;30041;48.300;16.352;2023-05-23T08:53:30;99282.03;;;24.14;51.66
43312;BME280;30041;48.300;16.352;2023-05-23T08:55:56;99280.44;;;24.18;51.97
43312;BME280;30041;48.300;16.352;2023-05-23T08:58:22;99281.50;;;24.17;52.02
43312;BME280;30041;48.300;16.352;2023-05-23T09:00:48;99275.75;;;23.98;51.41
43312;BME280;30041;48.300;16.352;2023-05-23T09:03:16;99277.25;;;23.79;51.65
43312;BME280;30041;48.300;16.352;2023-05-23T09:05:41;99274.63;;;23.57;51.98
43312;BME280;30041;48.300;16.352;2023-05-23T09:08:07;99279.66;;;23.38;52.52
43312;BME280;30041;48.300;16.352;2023-05-23T09:10:33;99284.72;;;23.29;52.76
43312;BME280;30041;48.300;16.352;2023-05-23T09:12:59;99277.09;;;23.26;52.60
43312;BME280;30041;48.300;16.352;2023-05-23T09:15:24;99276.25;;;23.20;53.12
43312;BME280;30041;48.300;16.352;2023-05-23T09:17:50;99270.63;;;23.22;53.29
43312;BME280;30041;48.300;16.352;2023-05-23T09:20:16;99268.66;;;23.17;53.24
43312;BME280;30041;48.300;16.352;2023-05-23T09:22:46;99274.91;;;23.18;53.33
43312;BME280;30041;48.300;16.352;2023-05-23T09:25:13;99269.75;;;23.16;53.12
43312;BME280;30041;48.300;16.352;2023-05-23T09:27:38;99268.63;;;23.12;53.37
43312;BME280;30041;48.300;16.352;2023-05-23T09:30:06;99267.56;;;23.13;53.10
43312;BME280;30041;48.300;16.352;2023-05-23T09:32:31;99274.34;;;23.16;53.27
43312;BME280;30041;48.300;16.352;2023-05-23T09:34:58;99266.50;;;23.19;52.88
43312;BME280;30041;48.300;16.352;2023-05-23T09:37:35;99279.75;;;23.16;53.06
43312;BME280;30041;48.300;16.352;2023-05-23T09:40:08;99276.28;;;23.26;52.91
43312;BME280;30041;48.300;16.352;2023-05-23T09:42:34;99280.69;;;23.32;52.56
43312;BME280;30041;48.300;16.352;2023-05-23T09:44:59;99283.59;;;23.25;52.97
43312;BME280;30041;48.300;16.352;2023-05-23T09:47:25;99287.69;;;23.28;52.76
43312;BME280;30041;48.300;16.352;2023-05-23T09:49:51;99282.47;;;23.21;53.16
43312;BME280;30041;48.300;16.352;2023-05-23T09:52:19;99271.13;;;23.24;53.06
43312;BME280;30041;48.300;16.352;2023-05-23T09:54:46;99274.16;;;23.28;52.75
43312;BME280;30041;48.300;16.352;2023-05-23T09:57:14;99269.84;;;23.27;52.83
43312;BME280;30041;48.300;16.352;2023-05-23T09:59:41;99278.75;;;23.27;52.68
43312;BME280;30041;48.300;16.352;2023-05-23T10:02:16;99276.25;;;23.20;52.78
43312;BME280;30041;48.300;16.352;2023-05-23T10:04:43;99272.91;;;23.08;52.71
43312;BME280;30041;48.300;16.352;2023-05-23T10:07:18;99259.59;;;23.02;53.21
43312;BME280;30041;48.300;16.352;2023-05-23T10:09:47;99261.44;;;22.96;53.46
43312;BME280;30041;48.300;16.352;2023-05-23T10:12:38;99271.91;;;22.92;53.32
43312;BME280;30041;48.300;16.352;2023-05-23T10:15:08;99277.88;;;22.94;53.36
43312;BME280;30041;48.300;16.352;2023-05-23T10:20:32;99269.50;;;22.91;53.38
43312;BME280;30041;48.300;16.352;2023-05-23T10:22:59;99272.69;;;22.88;53.35
43312;BME280;30041;48.300;16.352;2023-05-23T10:25:25;99277.03;;;22.89;53.30
43312;BME280;30041;48.300;16.352;2023-05-23T10:27:54;99275.16;;;22.89;53.22
43312;BME280;30041;48.300;16.352;2023-05-23T10:30:20;99268.94;;;22.89;53.54
43312;BME280;30041;48.300;16.352;2023-05-23T10:32:46;99267.03;;;22.89;53.21
43312;BME280;30041;48.300;16.352;2023-05-23T10:35:40;99257.81;;;22.85;53.18
43312;BME280;30041;48.300;16.352;2023-05-23T10:41:33;99243.22;;;22.86;53.33
43312;BME280;30041;48.300;16.352;2023-05-23T10:46:15;99247.66;;;22.97;53.01
43312;BME280;30041;48.300;16.352;2023-05-23T10:48:42;99238.25;;;23.00;53.26
43312;BME280;30041;48.300;16.352;2023-05-23T10:51:09;99235.28;;;23.02;53.18
43312;BME280;30041;48.300;16.352;2023-05-23T10:53:42;99230.72;;;23.02;53.33
43312;BME280;30041;48.300;16.352;2023-05-23T10:56:10;99229.88;;;23.02;53.29
43312;BME280;30041;48.300;16.352;2023-05-23T10:58:43;99234.22;;;23.03;53.52
43312;BME280;30041;48.300;16.352;2023-05-23T11:01:12;99234.78;;;23.05;53.64
43312;BME280;30041;48.300;16.352;2023-05-23T11:06:29;99220.25;;;23.11;53.18
43312;BME280;30041;48.300;16.352;2023-05-23T11:09:03;99222.94;;;23.11;53.68
43312;BME280;30041;48.300;16.352;2023-05-23T11:14:13;99208.78;;;23.36;53.31
43312;BME280;30041;48.300;16.352;2023-05-23T11:16:40;99200.94;;;23.34;53.02
43312;BME280;30041;48.300;16.352;2023-05-23T11:22:03;99203.38;;;23.36;53.12
43312;BME280;30041;48.300;16.352;2023-05-23T11:24:51;99193.97;;;23.49;53.09
43312;BME280;30041;48.300;16.352;2023-05-23T11:27:29;99190.97;;;23.40;52.68
43312;BME280;30041;48.300;16.352;2023-05-23T11:30:01;99181.78;;;23.46;53.16
43312;BME280;30041;48.300;16.352;2023-05-23T11:32:28;99179.72;;;23.58;52.57
43312;BME280;30041;48.300;16.352;2023-05-23T11:34:54;99192.94;;;23.55;53.04
43312;BME280;30041;48.300;16.352;2023-05-23T11:37:20;99197.84;;;23.58;53.10
43312;BME280;30041;48.300;16.352;2023-05-23T11:39:46;99191.88;;;23.56;52.85
43312;BME280;30041;48.300;16.352;2023-05-23T11:42:11;99195.72;;;23.65;53.39
43312;BME280;30041;48.300;16.352;2023-05-23T11:44:37;99190.56;;;23.69;52.93
43312;BME280;30041;48.300;16.352;2023-05-23T11:47:06;99184.94;;;23.75;52.66
43312;BME280;30041;48.300;16.352;2023-05-23T11:49:34;99193.50;;;23.62;52.50
43312;BME280;30041;48.300;16.352;2023-05-23T11:52:01;99189.97;;;23.51;52.99
43312;BME280;30041;48.300;16.352;2023-05-23T11:54:27;99173.13;;;23.44;53.42
43312;BME280;30041;48.300;16.352;2023-05-23T11:56:54;99175.00;;;23.38;53.55
43312;BME280;30041;48.300;16.352;2023-05-23T11:59:23;99163.16;;;23.50;53.18
43312;BME280;30041;48.300;16.352;2023-05-23T12:01:49;99164.84;;;23.61;53.17
43312;BME280;30041;48.300;16.352;2023-05-23T12:04:14;99161.34;;;23.71;52.90
43312;BME280;30041;48.300;16.352;2023-05-23T12:06:40;99160.84;;;23.74;53.06
43312;BME280;30041;48.300;16.352;2023-05-23T12:09:07;99157.59;;;23.72;52.79
43312;BME280;30041;48.300;16.352;2023-05-23T12:11:33;99149.94;;;23.53;53.05
43312;BME280;30041;48.300;16.352;2023-05-23T12:13:59;99156.09;;;23.49;53.16
43312;BME280;30041;48.300;16.352;2023-05-23T12:16:41;99155.31;;;23.48;52.78
43312;BME280;30041;48.300;16.352;2023-05-23T12:19:08;99168.56;;;23.45;53.12
43312;BME280;30041;48.300;16.352;2023-05-23T12:21:45;99172.31;;;23.44;52.74
43312;BME280;30041;48.300;16.352;2023-05-23T12:24:24;99175.56;;;23.46;52.43
43312;BME280;30041;48.300;16.352;2023-05-23T12:26:56;99168.78;;;23.38;52.76
43312;BME280;30041;48.300;16.352;2023-05-23T12:29:28;99168.22;;;23.36;52.98
43312;BME280;30041;48.300;16.352;2023-05-23T12:31:59;99173.09;;;23.34;52.99
43312;BME280;30041;48.300;16.352;2023-05-23T12:34:25;99170.66;;;23.37;52.56
43312;BME280;30041;48.300;16.352;2023-05-23T12:36:55;99164.47;;;23.42;52.32
43312;BME280;30041;48.300;16.352;2023-05-23T12:39:27;99162.84;;;23.41;52.10
43312;BME280;30041;48.300;16.352;2023-05-23T12:41:54;99161.00;;;23.47;52.17
43312;BME280;30041;48.300;16.352;2023-05-23T12:44:20;99155.63;;;23.57;51.19
43312;BME280;30041;48.300;16.352;2023-05-23T12:46:45;99168.09;;;23.58;50.87
43312;BME280;30041;48.300;16.352;2023-05-23T12:49:11;99165.38;;;23.58;50.47
43312;BME280;30041;48.300;16.352;2023-05-23T12:51:37;99178.34;;;23.56;50.55
43312;BME280;30041;48.300;16.352;2023-05-23T12:54:02;99184.81;;;23.55;50.93
43312;BME280;30041;48.300;16.352;2023-05-23T12:56:28;99181.31;;;23.59;50.76
43312;BME280;30041;48.300;16.352;2023-05-23T12:58:53;99178.91;;;23.58;50.33
43312;BME280;30041;48.300;16.352;2023-05-23T13:01:19;99176.19;;;23.58;50.82
43312;BME280;30041;48.300;16.352;2023-05-23T13:03:45;99184.03;;;23.59;50.49
43312;BME280;30041;48.300;16.352;2023-05-23T13:06:10;99171.84;;;23.57;50.71
43312;BME280;30041;48.300;16.352;2023-05-23T13:08:36;99165.94;;;23.60;50.48